Terminal Aerodrome Forecast
Issued by NWS Wilmington, OH

Current Version | Previous Version | Text Only | Print | Product List | Glossary Off
Versions: 1 2 3 4 5 6 7 8 9 10 11 12 13 14 15 16

022
FTUS41 KILN 211121
TAFDAY
TAF
KDAY 211121Z 2112/2212 19007KT P6SM -RA SCT050 BKN100
      TEMPO 2112/2113 5SM -RA BKN007
     FM211400 19010KT P6SM SCT012 OVC025
      TEMPO 2114/2116 P6SM BKN015
     FM211800 21012KT P6SM OVC025
     FM212100 23011KT P6SM VCSH BKN040
     FM220200 27006KT P6SM SCT030=

USA.gov is the U.S. government's official web portal to all federal, state and local government web resources and services.